Time;durP1;ratioP1;P1;durP2;ratioP2;P2;SDS_P1;SDS_P2;PMS_P1;PMS_P2;Temp;Humidity;BMP_temperature;BMP_pressure;BME280_temperature;BME280_humidity;BME280_pressure;Samples;Min_cycle;Max_cycle;Signal;HPM_P1;HPM_P2
2022/09/07 00:01:36;;;;;;;;;;;16.20;99.90;;;;;;5076701;28;19912;-80
2022/09/07 00:04:03;;;;;;;;;;;16.20;99.90;;;;;;5095694;28;20360;-78
2022/09/07 00:06:30;;;;;;;;;;;16.30;99.90;;;;;;5094956;28;19927;-80
2022/09/07 00:08:57;;;;;;;;;;;16.20;99.90;;;;;;5094597;28;19912;-80
2022/09/07 00:11:23;;;;;;;;;;;16.20;99.90;;;;;;5077215;28;19958;-80
2022/09/07 00:13:50;;;;;;;;;;;16.10;99.90;;;;;;5095653;28;20288;-77
2022/09/07 00:16:18;;;;;;;;;;;16.10;99.90;;;;;;5084420;28;19916;-77
2022/09/07 00:18:45;;;;;;;;;;;16.10;99.90;;;;;;5095898;28;19920;-78
2022/09/07 00:21:13;;;;;;;;;;;16.20;99.90;;;;;;5094090;28;19908;-77
2022/09/07 00:23:40;;;;;;;;;;;16.20;99.90;;;;;;5095326;28;19913;-78
2022/09/07 00:26:08;;;;;;;;;;;16.10;99.90;;;;;;5076149;28;19923;-78
2022/09/07 00:28:36;;;;;;;;;;;16.10;99.90;;;;;;5095305;28;20439;-79
2022/09/07 00:31:03;;;;;;;;;;;16.20;99.90;;;;;;5094910;28;20402;-79
2022/09/07 00:33:30;;;;;;;;;;;16.30;99.90;;;;;;5092459;28;19908;-79
2022/09/07 00:35:59;;;;;;;;;;;16.60;99.90;;;;;;5094910;28;20383;-78
2022/09/07 00:38:26;;;;;;;;;;;16.70;99.90;;;;;;5096107;28;19948;-77
2022/09/07 00:40:53;;;;;;;;;;;16.90;99.80;;;;;;5092687;28;19912;-81
2022/09/07 00:43:29;;;;;;;;;;;17.00;99.60;;;;;;5081497;28;19938;-79
2022/09/07 00:45:55;;;;;;;;;;;17.10;99.60;;;;;;5094699;28;19927;-78
2022/09/07 00:48:24;;;;;;;;;;;17.20;99.00;;;;;;5094884;28;20372;-79
2022/09/07 00:50:53;;;;;;;;;;;17.30;99.20;;;;;;5088176;28;19912;-77
2022/09/07 00:53:24;;;;;;;;;;;17.30;98.50;;;;;;5095055;28;19997;-81
2022/09/07 00:55:52;;;;;;;;;;;17.30;98.70;;;;;;5085442;28;19908;-81
2022/09/07 00:58:19;;;;;;;;;;;17.40;97.90;;;;;;5074705;28;20353;-79
2022/09/07 01:00:47;;;;;;;;;;;17.40;97.80;;;;;;5089494;28;19909;-79
2022/09/07 01:03:15;;;;;;;;;;;17.30;97.80;;;;;;5076741;28;19909;-79
2022/09/07 01:05:43;;;;;;;;;;;17.30;97.90;;;;;;5094129;28;19916;-80
2022/09/07 01:08:11;;;;;;;;;;;17.40;98.30;;;;;;5095308;28;19915;-78
2022/09/07 01:10:38;;;;;;;;;;;17.40;98.00;;;;;;5094956;28;19915;-79
2022/09/07 01:13:05;;;;;;;;;;;17.40;97.90;;;;;;5094230;28;20461;-80
2022/09/07 01:15:49;;;;;;;;;;;17.50;98.60;;;;;;5094161;28;19934;-78
2022/09/07 01:18:25;;;;;;;;;;;17.70;97.50;;;;;;5093534;28;20014;-78
2022/09/07 01:21:10;;;;;;;;;;;17.90;97.30;;;;;;5094666;28;19977;-76
2022/09/07 01:23:59;;;;;;;;;;;18.20;97.20;;;;;;5094489;28;19912;-78
2022/09/07 01:26:44;;;;;;;;;;;18.40;96.10;;;;;;5082366;28;19927;-76
2022/09/07 01:29:16;;;;;;;;;;;18.60;96.70;;;;;;5093636;28;20365;-77
2022/09/07 01:32:00;;;;;;;;;;;18.90;96.20;;;;;;5094791;28;19930;-76
2022/09/07 01:34:26;;;;;;;;;;;19.20;95.50;;;;;;5075864;28;20582;-78
2022/09/07 01:37:11;;;;;;;;;;;19.20;95.40;;;;;;5094548;28;19908;-78
2022/09/07 01:39:56;;;;;;;;;;;19.40;95.00;;;;;;5093185;28;19908;-76
2022/09/07 01:42:27;;;;;;;;;;;19.40;95.80;;;;;;5092924;28;19908;-80
2022/09/07 01:45:01;;;;;;;;;;;19.70;96.60;;;;;;5092833;28;19956;-81
2022/09/07 01:47:47;;;;;;;;;;;19.40;96.00;;;;;;5092633;28;19912;-81
2022/09/07 01:50:22;;;;;;;;;;;19.50;96.90;;;;;;5092102;28;19908;-81
2022/09/07 01:52:49;;;;;;;;;;;19.50;96.30;;;;;;5092805;28;19908;-80
2022/09/07 01:55:23;;;;;;;;;;;19.50;96.40;;;;;;5094069;28;20540;-77
2022/09/07 01:58:00;;;;;;;;;;;19.70;96.30;;;;;;5093576;28;19944;-76
2022/09/07 02:00:27;;;;;;;;;;;19.90;95.40;;;;;;5092545;28;19908;-77
2022/09/07 02:03:12;;;;;;;;;;;20.20;95.10;;;;;;5093792;28;19915;-81
2022/09/07 02:05:46;;;;;;;;;;;20.40;95.50;;;;;;5094270;28;19916;-82
2022/09/07 02:08:33;;;;;;;;;;;20.70;95.00;;;;;;5093106;28;21393;-81
2022/09/07 02:11:06;;;;;;;;;;;20.50;95.00;;;;;;5091593;28;19968;-78
2022/09/07 02:13:41;;;;;;;;;;;20.60;94.90;;;;;;5092386;28;19916;-81
2022/09/07 02:16:14;;;;;;;;;;;20.70;95.00;;;;;;5093441;28;19938;-76
2022/09/07 02:18:46;;;;;;;;;;;20.60;94.90;;;;;;5090621;28;19932;-79
2022/09/07 02:21:14;;;;;;;;;;;20.40;94.70;;;;;;5082554;28;19995;-76
2022/09/07 02:23:46;;;;;;;;;;;20.10;95.10;;;;;;5093487;28;19930;-78
2022/09/07 02:26:16;;;;;;;;;;;19.80;95.30;;;;;;5091417;28;19942;-79
2022/09/07 02:28:43;;;;;;;;;;;19.50;95.90;;;;;;5087214;28;20287;-77
2022/09/07 02:31:09;;;;;;;;;;;19.40;96.90;;;;;;5089705;28;19912;-81
2022/09/07 02:33:36;;;;;;;;;;;19.20;97.10;;;;;;5090396;28;20461;-80
2022/09/07 02:36:04;;;;;;;;;;;19.10;97.20;;;;;;5091150;28;19991;-79
2022/09/07 02:38:31;;;;;;;;;;;18.90;97.50;;;;;;5090062;28;19904;-80
2022/09/07 02:40:59;;;;;;;;;;;18.70;97.60;;;;;;5089455;28;19919;-80
2022/09/07 02:43:27;;;;;;;;;;;18.60;97.70;;;;;;5089746;28;20460;-80
2022/09/07 02:46:12;;;;;;;;;;;18.50;97.60;;;;;;5090084;28;20268;-80
2022/09/07 02:48:50;;;;;;;;;;;18.40;97.90;;;;;;5090764;28;20572;-80
2022/09/07 02:51:23;;;;;;;;;;;18.40;97.90;;;;;;5071809;28;19909;-80
2022/09/07 02:54:08;;;;;;;;;;;18.50;98.00;;;;;;5090259;28;19935;-80
2022/09/07 02:56:44;;;;;;;;;;;18.90;97.60;;;;;;5089544;28;19912;-80
2022/09/07 02:59:19;;;;;;;;;;;19.00;95.90;;;;;;5089713;28;19912;-80
2022/09/07 03:01:56;;;;;;;;;;;19.50;95.40;;;;;;5089696;28;19908;-80
2022/09/07 03:04:35;;;;;;;;;;;19.60;94.90;;;;;;5091074;28;19915;-80
2022/09/07 03:07:09;;;;;;;;;;;19.50;94.60;;;;;;5092582;28;20369;-79
2022/09/07 03:09:38;;;;;;;;;;;19.30;94.60;;;;;;5092409;28;19912;-79
2022/09/07 03:12:06;;;;;;;;;;;19.40;94.70;;;;;;5092307;28;20303;-79
2022/09/07 03:14:34;;;;;;;;;;;19.80;94.00;;;;;;5091628;28;20003;-78
2022/09/07 03:17:01;;;;;;;;;;;20.60;92.70;;;;;;5092619;28;19960;-79
2022/09/07 03:19:28;;;;;;;;;;;21.70;92.20;;;;;;5090372;28;19912;-78
2022/09/07 03:21:55;;;;;;;;;;;22.90;88.80;;;;;;5090676;28;19966;-79
2022/09/07 03:24:21;;;;;;;;;;;23.70;86.30;;;;;;5091676;28;19977;-78
2022/09/07 03:26:50;;;;;;;;;;;24.70;84.00;;;;;;5092259;28;19920;-80
2022/09/07 03:29:17;;;;;;;;;;;25.00;78.60;;;;;;5074411;28;19959;-80
2022/09/07 03:31:43;;;;;;;;;;;24.60;79.80;;;;;;5091918;28;19954;-80
2022/09/07 03:34:10;;;;;;;;;;;24.70;81.70;;;;;;5092424;28;19908;-81
2022/09/07 03:36:37;;;;;;;;;;;24.70;80.70;;;;;;5092456;28;20387;-80
2022/09/07 03:39:04;;;;;;;;;;;24.60;78.70;;;;;;5091836;28;19909;-80
2022/09/07 03:41:31;;;;;;;;;;;24.00;79.80;;;;;;5091249;28;20253;-79
2022/09/07 03:44:01;;;;;;;;;;;23.40;81.90;;;;;;5090442;28;19952;-82
2022/09/07 03:46:28;;;;;;;;;;;22.60;82.70;;;;;;5091589;28;19966;-78
2022/09/07 03:48:54;;;;;;;;;;;22.10;83.80;;;;;;5091710;28;19968;-81
2022/09/07 03:51:21;;;;;;;;;;;21.80;84.60;;;;;;5091370;28;20387;-81
2022/09/07 03:53:48;;;;;;;;;;;22.10;85.60;;;;;;5087015;28;19916;-79
2022/09/07 03:56:17;;;;;;;;;;;22.70;84.10;;;;;;5091346;28;19955;-79
2022/09/07 03:58:44;;;;;;;;;;;23.70;82.90;;;;;;5091487;28;19962;-78
2022/09/07 04:01:16;;;;;;;;;;;23.70;82.40;;;;;;5091116;28;20442;-78
2022/09/07 04:03:43;;;;;;;;;;;23.60;82.20;;;;;;5073176;28;19996;-78
2022/09/07 04:06:10;;;;;;;;;;;23.10;83.30;;;;;;5089942;28;19950;-78
2022/09/07 04:08:39;;;;;;;;;;;23.30;80.10;;;;;;5090243;28;19908;-80
2022/09/07 04:11:06;;;;;;;;;;;23.90;78.40;;;;;;5089570;28;20275;-78
2022/09/07 04:13:34;;;;;;;;;;;24.00;81.50;;;;;;5090682;28;19915;-78
2022/09/07 04:16:08;;;;;;;;;;;24.50;79.20;;;;;;5089817;28;20301;-80
2022/09/07 04:18:35;;;;;;;;;;;24.70;77.90;;;;;;5090044;28;19965;-79
2022/09/07 04:21:02;;;;;;;;;;;24.90;77.40;;;;;;5090898;28;20372;-79
2022/09/07 04:23:28;;;;;;;;;;;25.20;76.70;;;;;;5090820;28;19915;-80
2022/09/07 04:25:55;;;;;;;;;;;25.40;77.50;;;;;;5092597;28;19967;-77
2022/09/07 04:28:22;;;;;;;;;;;25.70;76.10;;;;;;5095367;28;19908;-79
2022/09/07 04:30:48;;;;;;;;;;;25.70;76.00;;;;;;5094575;28;20271;-78
2022/09/07 04:33:15;;;;;;;;;;;26.10;76.20;;;;;;5095199;28;19916;-77
2022/09/07 04:35:42;;;;;;;;;;;26.20;74.90;;;;;;5076391;28;19915;-78
2022/09/07 04:38:15;;;;;;;;;;;26.30;72.90;;;;;;5094947;28;19908;-77
2022/09/07 04:40:42;;;;;;;;;;;25.80;73.90;;;;;;5093920;28;19958;-78
2022/09/07 04:43:11;;;;;;;;;;;26.00;74.60;;;;;;5094687;28;19931;-77
2022/09/07 04:45:39;;;;;;;;;;;26.40;74.80;;;;;;5092234;28;19916;-78
2022/09/07 04:48:05;;;;;;;;;;;26.70;72.40;;;;;;5093333;28;19912;-78
2022/09/07 04:50:32;;;;;;;;;;;26.50;72.90;;;;;;5093380;28;19916;-80
2022/09/07 04:52:59;;;;;;;;;;;26.40;72.40;;;;;;5092529;28;19939;-78
2022/09/07 04:55:26;;;;;;;;;;;26.00;73.40;;;;;;5075025;28;19926;-81
2022/09/07 04:57:52;;;;;;;;;;;26.30;72.10;;;;;;5093909;28;19956;-79
2022/09/07 05:00:19;;;;;;;;;;;26.20;73.30;;;;;;5092786;28;20013;-77
2022/09/07 05:02:46;;;;;;;;;;;26.30;75.20;;;;;;5093269;28;19912;-84
2022/09/07 05:05:12;;;;;;;;;;;26.80;74.20;;;;;;5092951;28;19923;-78
2022/09/07 05:07:39;;;;;;;;;;;26.80;74.50;;;;;;5094040;28;19908;-78
2022/09/07 05:10:06;;;;;;;;;;;26.90;73.80;;;;;;5092606;28;19912;-82
2022/09/07 05:12:32;;;;;;;;;;;26.80;72.60;;;;;;5093736;28;19915;-78
2022/09/07 05:15:00;;;;;;;;;;;26.70;73.20;;;;;;5093497;28;19912;-81
2022/09/07 05:17:27;;;;;;;;;;;26.50;74.00;;;;;;5093341;28;20428;-76
2022/09/07 05:19:54;;;;;;;;;;;26.40;74.60;;;;;;5091741;28;20365;-79
2022/09/07 05:22:21;;;;;;;;;;;26.20;74.40;;;;;;5092753;28;20368;-76
2022/09/07 05:24:47;;;;;;;;;;;25.70;75.10;;;;;;5074533;28;19939;-79
2022/09/07 05:27:14;;;;;;;;;;;25.30;77.20;;;;;;5087033;28;19927;-78
2022/09/07 05:29:41;;;;;;;;;;;25.60;76.00;;;;;;5091082;28;20372;-76
2022/09/07 05:32:08;;;;;;;;;;;26.00;76.90;;;;;;5092823;28;19915;-78
2022/09/07 05:34:34;;;;;;;;;;;26.30;76.60;;;;;;5088128;28;19965;-76
2022/09/07 05:37:01;;;;;;;;;;;25.90;75.10;;;;;;5091131;28;20174;-78
2022/09/07 05:39:28;;;;;;;;;;;25.70;76.30;;;;;;5092227;28;19912;-84
2022/09/07 05:41:55;;;;;;;;;;;25.90;75.30;;;;;;5092146;28;19925;-79
2022/09/07 05:44:22;;;;;;;;;;;25.30;76.60;;;;;;5090475;28;19912;-77
2022/09/07 05:46:50;;;;;;;;;;;25.10;78.30;;;;;;5092177;28;20041;-81
2022/09/07 05:49:17;;;;;;;;;;;25.20;77.10;;;;;;5090572;28;19919;-79
2022/09/07 05:51:43;;;;;;;;;;;24.90;77.70;;;;;;5079724;28;20380;-79
2022/09/07 05:54:10;;;;;;;;;;;24.90;78.50;;;;;;5077992;28;19908;-79
2022/09/07 05:56:37;;;;;;;;;;;25.00;78.20;;;;;;5093009;28;19915;-83
2022/09/07 05:59:04;;;;;;;;;;;25.30;77.60;;;;;;5087742;28;19912;-85
2022/09/07 06:01:31;;;;;;;;;;;25.00;78.20;;;;;;5073654;28;19916;-85
2022/09/07 06:03:58;;;;;;;;;;;25.10;77.70;;;;;;5057634;28;19912;-78
2022/09/07 06:06:24;;;;;;;;;;;24.50;78.20;;;;;;5092125;28;20090;-82
2022/09/07 06:08:52;;;;;;;;;;;24.10;80.30;;;;;;5090283;28;19909;-83
2022/09/07 06:11:22;;;;;;;;;;;24.30;80.20;;;;;;5090453;28;19931;-83
2022/09/07 06:13:50;;;;;;;;;;;24.30;80.30;;;;;;5090440;28;20364;-88
2022/09/07 06:16:18;;;;;;;;;;;24.50;79.40;;;;;;5090795;28;20618;-82
2022/09/07 06:18:49;;;;;;;;;;;24.30;79.10;;;;;;5073904;28;19923;-82
2022/09/07 06:21:22;;;;;;;;;;;24.40;79.80;;;;;;5090942;28;19963;-83
2022/09/07 06:23:49;;;;;;;;;;;24.40;78.40;;;;;;5089983;28;19936;-80
2022/09/07 06:26:16;;;;;;;;;;;24.90;77.80;;;;;;5093096;28;19916;-82
2022/09/07 06:28:44;;;;;;;;;;;25.10;77.60;;;;;;5092140;28;20322;-80
2022/09/07 06:31:12;;;;;;;;;;;25.40;76.20;;;;;;5091354;28;19908;-80
2022/09/07 06:33:41;;;;;;;;;;;25.40;76.70;;;;;;5082824;28;19969;-79
2022/09/07 06:36:12;;;;;;;;;;;25.50;75.80;;;;;;5069732;28;19908;-79
2022/09/07 06:38:43;;;;;;;;;;;25.10;76.00;;;;;;5091710;28;19908;-79
2022/09/07 06:41:15;;;;;;;;;;;24.50;76.20;;;;;;5090825;28;19918;-79
2022/09/07 06:43:42;;;;;;;;;;;23.50;78.70;;;;;;5091582;28;19912;-79
2022/09/07 06:46:09;;;;;;;;;;;22.80;81.50;;;;;;5073339;28;19959;-78
2022/09/07 06:48:36;;;;;;;;;;;22.40;81.60;;;;;;5090911;28;19948;-78
2022/09/07 06:51:07;;;;;;;;;;;22.00;83.00;;;;;;5088418;28;19958;-82
2022/09/07 06:53:34;;;;;;;;;;;21.60;84.90;;;;;;5090838;28;19972;-80
2022/09/07 06:56:04;;;;;;;;;;;21.20;86.00;;;;;;5088626;28;19916;-78
2022/09/07 06:58:30;;;;;;;;;;;20.90;87.00;;;;;;5091792;28;19969;-78
2022/09/07 07:00:57;;;;;;;;;;;20.50;88.00;;;;;;5095029;28;19919;-82
2022/09/07 07:03:24;;;;;;;;;;;20.00;89.80;;;;;;5092590;28;20446;-78
2022/09/07 07:05:54;;;;;;;;;;;19.70;90.40;;;;;;5082030;28;20404;-81
2022/09/07 07:08:22;;;;;;;;;;;19.40;91.00;;;;;;5077604;28;19912;-80
2022/09/07 07:10:49;;;;;;;;;;;19.10;91.60;;;;;;5092072;28;19915;-79
2022/09/07 07:13:16;;;;;;;;;;;18.80;92.00;;;;;;5093539;28;20007;-81
2022/09/07 07:15:43;;;;;;;;;;;18.50;92.30;;;;;;5075271;28;19919;-81
2022/09/07 07:18:10;;;;;;;;;;;18.30;93.00;;;;;;5054856;28;19970;-76
2022/09/07 07:20:41;;;;;;;;;;;18.20;93.60;;;;;;5071655;28;20631;-81
2022/09/07 07:23:07;;;;;;;;;;;18.00;93.60;;;;;;5077271;28;19961;-80
2022/09/07 07:25:34;;;;;;;;;;;17.90;93.90;;;;;;5074477;28;20741;-77
2022/09/07 07:28:01;;;;;;;;;;;17.80;94.30;;;;;;5073294;28;20011;-78
2022/09/07 07:30:28;;;;;;;;;;;17.60;94.60;;;;;;5091819;28;19920;-81
2022/09/07 07:32:56;;;;;;;;;;;17.50;94.80;;;;;;5091410;28;19947;-80
2022/09/07 07:35:25;;;;;;;;;;;17.50;95.00;;;;;;5093737;28;19938;-84
2022/09/07 07:37:53;;;;;;;;;;;17.50;95.20;;;;;;5090771;28;19931;-82
2022/09/07 07:40:20;;;;;;;;;;;17.40;95.40;;;;;;5093210;28;19916;-81
2022/09/07 07:42:47;;;;;;;;;;;17.30;95.60;;;;;;5075384;28;19914;-78
2022/09/07 07:45:14;;;;;;;;;;;17.30;95.70;;;;;;5092256;28;19963;-81
2022/09/07 07:47:40;;;;;;;;;;;17.20;96.00;;;;;;5088775;28;19923;-82
2022/09/07 07:50:07;;;;;;;;;;;17.10;96.40;;;;;;5093771;28;20260;-80
2022/09/07 07:52:34;;;;;;;;;;;17.10;96.60;;;;;;5092723;28;20276;-80
2022/09/07 07:55:01;;;;;;;;;;;17.00;96.70;;;;;;5092345;28;19912;-80
2022/09/07 07:57:28;;;;;;;;;;;17.00;96.90;;;;;;5088137;28;19912;-79
2022/09/07 07:59:55;;;;;;;;;;;16.90;96.90;;;;;;5092142;28;19912;-79
2022/09/07 08:02:22;;;;;;;;;;;16.80;96.90;;;;;;5077691;28;20280;-79
2022/09/07 08:04:49;;;;;;;;;;;16.80;97.00;;;;;;5096423;28;19936;-78
2022/09/07 08:07:16;;;;;;;;;;;16.80;97.30;;;;;;5085521;28;19943;-79
2022/09/07 08:09:44;;;;;;;;;;;16.80;97.20;;;;;;5074457;28;19916;-79
2022/09/07 08:12:12;;;;;;;;;;;16.70;97.30;;;;;;5089344;28;19922;-79
2022/09/07 08:14:39;;;;;;;;;;;16.70;97.20;;;;;;5095363;28;19999;-79
2022/09/07 08:17:07;;;;;;;;;;;16.80;97.20;;;;;;5095909;28;19924;-79
2022/09/07 08:19:33;;;;;;;;;;;16.70;96.90;;;;;;5094719;28;20421;-79
2022/09/07 08:22:00;;;;;;;;;;;16.70;97.10;;;;;;5078899;28;19971;-81
2022/09/07 08:24:26;;;;;;;;;;;16.70;97.20;;;;;;5094953;28;19908;-81
2022/09/07 08:26:53;;;;;;;;;;;16.70;97.20;;;;;;5089163;28;20020;-80
2022/09/07 08:29:20;;;;;;;;;;;16.70;97.50;;;;;;5083762;28;19913;-78
2022/09/07 08:31:47;;;;;;;;;;;16.70;97.60;;;;;;5096299;28;19999;-78
2022/09/07 08:34:14;;;;;;;;;;;16.70;97.70;;;;;;5095522;28;19912;-80
2022/09/07 08:36:40;;;;;;;;;;;16.80;97.90;;;;;;5095041;28;19909;-76
2022/09/07 08:39:07;;;;;;;;;;;16.80;97.90;;;;;;5096260;28;19960;-77
2022/09/07 08:41:36;;;;;;;;;;;16.80;98.10;;;;;;5097374;28;19960;-79
2022/09/07 08:44:05;;;;;;;;;;;16.80;98.30;;;;;;5094948;28;19909;-78
2022/09/07 08:46:44;;;;;;;;;;;16.80;98.10;;;;;;5078258;28;20296;-80
2022/09/07 08:49:37;;;;;;;;;;;16.80;98.20;;;;;;5095494;28;19919;-76
2022/09/07 08:52:10;;;;;;;;;;;16.80;98.00;;;;;;5074481;28;20500;-79
2022/09/07 08:54:38;;;;;;;;;;;16.70;98.20;;;;;;5094930;28;19962;-77
2022/09/07 08:57:05;;;;;;;;;;;16.70;98.20;;;;;;5093767;28;20353;-78
2022/09/07 08:59:32;;;;;;;;;;;16.70;98.10;;;;;;5095113;28;19908;-76
2022/09/07 09:01:58;;;;;;;;;;;16.70;98.30;;;;;;5094798;28;19908;-76
2022/09/07 09:04:27;;;;;;;;;;;16.70;98.50;;;;;;5096225;28;20273;-80
2022/09/07 09:07:00;;;;;;;;;;;16.60;98.60;;;;;;5097573;28;20006;-76
2022/09/07 09:09:38;;;;;;;;;;;16.70;98.90;;;;;;5097918;28;19915;-75
2022/09/07 09:12:24;;;;;;;;;;;16.70;98.80;;;;;;5098715;28;19919;-78
2022/09/07 09:15:05;;;;;;;;;;;16.70;99.20;;;;;;5083107;28;19927;-81
2022/09/07 09:17:35;;;;;;;;;;;16.70;98.80;;;;;;5102549;28;19920;-85
2022/09/07 09:20:16;;;;;;;;;;;16.60;98.90;;;;;;5099614;28;19912;-88
2022/09/07 09:22:43;;;;;;;;;;;16.50;99.00;;;;;;5095278;28;19908;-74
2022/09/07 09:25:18;;;;;;;;;;;16.50;99.30;;;;;;5093711;28;20408;-73
2022/09/07 09:27:46;;;;;;;;;;;16.50;99.30;;;;;;5075657;28;20364;-75
2022/09/07 09:30:17;;;;;;;;;;;16.40;99.40;;;;;;5094005;28;20045;-76
2022/09/07 09:32:44;;;;;;;;;;;16.50;99.60;;;;;;5094026;28;19908;-78
2022/09/07 09:35:22;;;;;;;;;;;16.40;99.70;;;;;;5093244;28;19912;-80
2022/09/07 09:37:49;;;;;;;;;;;16.40;99.80;;;;;;5097506;28;20008;-69
2022/09/07 09:40:22;;;;;;;;;;;16.30;99.90;;;;;;5089091;28;19912;-67
2022/09/07 09:43:02;;;;;;;;;;;16.30;99.90;;;;;;5091953;28;20368;-73
2022/09/07 09:45:43;;;;;;;;;;;16.20;99.90;;;;;;5091824;28;19962;-69
2022/09/07 09:48:10;;;;;;;;;;;16.20;99.90;;;;;;5082678;28;19912;-72
2022/09/07 09:50:39;;;;;;;;;;;16.20;99.90;;;;;;5085274;28;19920;-70
2022/09/07 09:53:06;;;;;;;;;;;16.20;99.90;;;;;;5089888;28;19912;-68
2022/09/07 09:55:34;;;;;;;;;;;16.30;99.90;;;;;;5092206;28;19965;-70
2022/09/07 09:58:02;;;;;;;;;;;16.30;99.90;;;;;;5092015;28;19913;-69
2022/09/07 10:00:30;;;;;;;;;;;16.20;99.90;;;;;;5092975;28;19953;-69
2022/09/07 10:03:01;;;;;;;;;;;16.20;99.90;;;;;;5093003;28;19915;-68
2022/09/07 10:05:30;;;;;;;;;;;16.30;99.90;;;;;;5092924;28;19947;-69
2022/09/07 10:07:57;;;;;;;;;;;16.30;99.90;;;;;;5092481;28;19962;-69
2022/09/07 10:10:24;;;;;;;;;;;16.30;99.90;;;;;;5092441;28;19908;-69
2022/09/07 10:12:54;;;;;;;;;;;16.30;99.90;;;;;;5091703;28;19915;-69
2022/09/07 10:15:36;;;;;;;;;;;16.30;99.90;;;;;;5092626;28;20269;-70
2022/09/07 10:18:05;;;;;;;;;;;16.30;99.90;;;;;;5072384;28;19926;-68
2022/09/07 10:20:33;;;;;;;;;;;16.30;99.90;;;;;;5077158;28;20006;-69
2022/09/07 10:23:00;;;;;;;;;;;16.20;99.90;;;;;;5092236;28;19911;-70
2022/09/07 10:25:29;;;;;;;;;;;16.20;99.90;;;;;;5092137;28;19918;-71
2022/09/07 10:28:14;;;;;;;;;;;16.20;99.90;;;;;;5092387;28;19919;-68
2022/09/07 10:30:58;;;;;;;;;;;16.20;99.90;;;;;;5092073;28;19912;-69
2022/09/07 10:33:34;;;;;;;;;;;16.10;99.90;;;;;;5086434;28;19912;-67
2022/09/07 10:36:19;;;;;;;;;;;16.10;99.90;;;;;;5086664;28;19913;-67
2022/09/07 10:38:50;;;;;;;;;;;16.10;99.90;;;;;;5091031;28;19923;-69
2022/09/07 10:41:18;;;;;;;;;;;16.00;99.90;;;;;;5085801;28;19961;-68
2022/09/07 10:43:48;;;;;;;;;;;16.10;99.90;;;;;;5083493;28;19912;-68
2022/09/07 10:46:21;;;;;;;;;;;16.10;99.90;;;;;;5092026;28;19969;-68
2022/09/07 10:49:23;;;;;;;;;;;16.10;99.90;;;;;;5091687;28;20360;-69
2022/09/07 10:51:50;;;;;;;;;;;16.10;99.90;;;;;;5022349;28;20019;-68
2022/09/07 10:54:23;;;;;;;;;;;16.00;99.90;;;;;;5070175;28;19916;-70
2022/09/07 10:57:15;;;;;;;;;;;16.00;99.90;;;;;;5082267;28;19912;-68
2022/09/07 10:59:58;;;;;;;;;;;16.10;99.90;;;;;;5084825;28;19908;-69
2022/09/07 11:02:53;;;;;;;;;;;16.10;99.90;;;;;;5091305;28;19915;-69
2022/09/07 11:05:32;;;;;;;;;;;16.10;99.90;;;;;;5062724;28;20464;-69
2022/09/07 11:07:59;;;;;;;;;;;16.10;99.90;;;;;;5091519;28;19998;-68
2022/09/07 11:10:45;;;;;;;;;;;16.20;99.90;;;;;;5091612;28;19920;-68
2022/09/07 11:13:15;;;;;;;;;;;16.10;99.90;;;;;;5091856;28;20002;-68
2022/09/07 11:16:01;;;;;;;;;;;16.10;99.90;;;;;;5085451;28;19912;-68
2022/09/07 11:18:35;;;;;;;;;;;16.00;99.90;;;;;;5085396;28;19920;-67
2022/09/07 11:21:03;;;;;;;;;;;16.10;99.90;;;;;;5082197;28;20372;-70
2022/09/07 11:23:42;;;;;;;;;;;16.10;99.90;;;;;;5089242;28;19944;-68
2022/09/07 11:26:10;;;;;;;;;;;16.10;99.90;;;;;;5091899;28;20005;-68
2022/09/07 11:28:43;;;;;;;;;;;16.10;99.90;;;;;;5090417;28;19912;-70
2022/09/07 11:31:36;;;;;;;;;;;16.10;99.90;;;;;;5089810;28;19951;-69
2022/09/07 11:34:03;;;;;;;;;;;16.10;99.90;;;;;;5069284;28;19969;-70
2022/09/07 11:36:35;;;;;;;;;;;16.10;99.90;;;;;;5088406;28;19908;-70
2022/09/07 11:39:22;;;;;;;;;;;16.10;99.90;;;;;;5093467;28;19998;-72
2022/09/07 11:41:55;;;;;;;;;;;16.00;99.90;;;;;;5094194;28;19912;-71
2022/09/07 11:44:31;;;;;;;;;;;16.10;99.90;;;;;;5093719;28;19912;-71
2022/09/07 11:47:04;;;;;;;;;;;16.00;99.90;;;;;;5095590;28;19916;-71
2022/09/07 11:49:31;;;;;;;;;;;16.10;99.90;;;;;;5086210;28;19936;-70
2022/09/07 11:51:57;;;;;;;;;;;16.10;99.90;;;;;;5085273;28;19915;-71
2022/09/07 11:54:42;;;;;;;;;;;16.10;99.90;;;;;;5086295;28;19912;-71
2022/09/07 11:57:15;;;;;;;;;;;16.10;99.90;;;;;;5086984;28;20061;-71
2022/09/07 11:59:53;;;;;;;;;;;16.10;99.90;;;;;;5085154;28;20348;-70
2022/09/07 12:02:38;;;;;;;;;;;16.00;99.90;;;;;;5092853;28;19908;-71
2022/09/07 12:05:16;;;;;;;;;;;16.00;99.90;;;;;;5093656;28;20003;-70
2022/09/07 12:07:50;;;;;;;;;;;16.00;99.90;;;;;;5063553;28;20288;-70
2022/09/07 12:10:23;;;;;;;;;;;16.00;99.90;;;;;;5083052;28;19912;-71
2022/09/07 12:12:49;;;;;;;;;;;16.00;99.90;;;;;;5084431;28;19912;-70
2022/09/07 12:15:32;;;;;;;;;;;16.00;99.90;;;;;;5082571;28;19912;-70
2022/09/07 12:18:04;;;;;;;;;;;16.00;99.90;;;;;;5086613;28;20273;-70
2022/09/07 12:20:47;;;;;;;;;;;16.00;99.90;;;;;;5092889;28;19914;-71
2022/09/07 12:23:16;;;;;;;;;;;16.00;99.90;;;;;;5093165;28;20280;-69
2022/09/07 12:25:44;;;;;;;;;;;16.00;99.90;;;;;;5093254;28;19946;-71
2022/09/07 12:28:36;;;;;;;;;;;16.00;99.90;;;;;;5083501;28;19969;-70
2022/09/07 12:31:10;;;;;;;;;;;16.00;99.90;;;;;;5092989;28;19923;-69
2022/09/07 12:33:38;;;;;;;;;;;16.00;99.90;;;;;;5092169;28;19954;-70
2022/09/07 12:36:24;;;;;;;;;;;15.90;99.90;;;;;;5085063;28;19912;-69
2022/09/07 12:39:09;;;;;;;;;;;15.90;99.90;;;;;;5078281;28;19957;-70
2022/09/07 12:41:41;;;;;;;;;;;15.90;99.90;;;;;;5084169;28;20418;-71
2022/09/07 12:44:14;;;;;;;;;;;15.90;99.90;;;;;;5083207;28;19962;-70
2022/09/07 12:46:43;;;;;;;;;;;15.80;99.90;;;;;;5090670;28;20364;-72
2022/09/07 12:49:27;;;;;;;;;;;15.80;99.90;;;;;;5092994;28;19919;-69
2022/09/07 12:51:57;;;;;;;;;;;15.80;99.90;;;;;;5089705;28;19920;-69
2022/09/07 12:54:29;;;;;;;;;;;15.80;99.90;;;;;;5084509;28;19916;-69
2022/09/07 12:57:22;;;;;;;;;;;15.80;99.90;;;;;;5084059;28;20438;-70
2022/09/07 12:59:52;;;;;;;;;;;15.80;99.90;;;;;;5055500;28;19960;-69
2022/09/07 13:02:32;;;;;;;;;;;15.80;99.90;;;;;;5065358;28;19923;-69
2022/09/07 13:05:17;;;;;;;;;;;15.80;99.90;;;;;;5089438;28;19912;-70
2022/09/07 13:07:59;;;;;;;;;;;15.70;99.90;;;;;;5086731;28;20269;-70
2022/09/07 13:10:29;;;;;;;;;;;15.80;99.90;;;;;;5084281;28;19915;-70
2022/09/07 13:13:03;;;;;;;;;;;15.80;99.90;;;;;;5081304;28;19921;-72
2022/09/07 13:15:43;;;;;;;;;;;15.80;99.90;;;;;;5074353;28;19909;-71
2022/09/07 13:18:30;;;;;;;;;;;15.70;99.90;;;;;;5088771;28;19951;-69
2022/09/07 13:21:09;;;;;;;;;;;15.70;99.90;;;;;;5093736;28;19920;-70
2022/09/07 13:23:37;;;;;;;;;;;15.70;99.90;;;;;;5094073;28;20388;-68
2022/09/07 13:26:05;;;;;;;;;;;15.60;99.90;;;;;;5093893;28;20015;-69
2022/09/07 13:28:41;;;;;;;;;;;15.60;99.90;;;;;;5093852;28;19916;-72
2022/09/07 13:31:07;;;;;;;;;;;15.60;99.90;;;;;;5093605;28;20006;-69
2022/09/07 13:33:34;;;;;;;;;;;15.50;99.90;;;;;;5093722;28;20317;-73
2022/09/07 13:36:02;;;;;;;;;;;15.50;99.90;;;;;;5093475;28;19919;-68
2022/09/07 13:38:29;;;;;;;;;;;15.50;99.90;;;;;;5093349;28;19909;-69
2022/09/07 13:41:02;;;;;;;;;;;15.40;99.90;;;;;;5075638;28;20026;-70
2022/09/07 13:43:29;;;;;;;;;;;15.40;99.90;;;;;;5094010;28;19915;-69
2022/09/07 13:46:00;;;;;;;;;;;15.30;99.90;;;;;;5093897;28;19920;-69
2022/09/07 13:48:33;;;;;;;;;;;15.40;99.90;;;;;;5093396;28;20360;-69
2022/09/07 13:51:12;;;;;;;;;;;15.30;99.90;;;;;;5093441;28;20261;-70
2022/09/07 13:53:45;;;;;;;;;;;15.30;99.90;;;;;;5092468;28;20276;-69
2022/09/07 13:56:27;;;;;;;;;;;15.30;99.90;;;;;;5093558;28;19909;-69
2022/09/07 13:58:54;;;;;;;;;;;15.20;99.90;;;;;;5072815;28;19912;-69
2022/09/07 14:01:25;;;;;;;;;;;15.20;99.90;;;;;;5072682;28;20011;-70
2022/09/07 14:03:54;;;;;;;;;;;15.10;99.90;;;;;;5076873;28;20419;-70
2022/09/07 14:06:20;;;;;;;;;;;15.10;99.90;;;;;;5092600;28;19927;-70
2022/09/07 14:08:48;;;;;;;;;;;15.10;99.90;;;;;;5072861;28;19912;-70
2022/09/07 14:11:22;;;;;;;;;;;15.00;99.90;;;;;;5073118;28;19915;-69
2022/09/07 14:14:07;;;;;;;;;;;15.00;99.90;;;;;;5073077;28;19917;-69
2022/09/07 14:16:34;;;;;;;;;;;14.90;99.90;;;;;;5074353;28;19999;-70
2022/09/07 14:19:02;;;;;;;;;;;14.90;99.90;;;;;;5092464;28;20384;-68
2022/09/07 14:21:29;;;;;;;;;;;14.90;99.90;;;;;;5073699;28;19943;-70
2022/09/07 14:23:57;;;;;;;;;;;14.70;99.90;;;;;;5091600;28;19916;-70
2022/09/07 14:26:23;;;;;;;;;;;14.70;99.90;;;;;;5092284;28;19924;-68
2022/09/07 14:28:55;;;;;;;;;;;14.70;99.90;;;;;;5092783;28;19916;-70
2022/09/07 14:31:23;;;;;;;;;;;14.60;99.90;;;;;;5092475;28;19919;-68
2022/09/07 14:33:49;;;;;;;;;;;14.50;99.90;;;;;;5092952;28;20483;-69
2022/09/07 14:36:17;;;;;;;;;;;14.40;99.90;;;;;;5092347;28;19916;-69
2022/09/07 14:38:44;;;;;;;;;;;14.40;99.90;;;;;;5092210;28;20288;-70